Time;durP1;ratioP1;P1;durP2;ratioP2;P2;SDS_P1;SDS_P2;PMS_P1;PMS_P2;Temp;Humidity;BMP_temperature;BMP_pressure;BME280_temperature;BME280_humidity;BME280_pressure;Samples;Min_cycle;Max_cycle;Signal;HPM_P1;HPM_P2
2023/01/02 00:01:03;;;;;;;;;;;;;;;4.06;89.61;101196.97;5091097;28;19923;-44
2023/01/02 00:03:29;;;;;;;;;;;;;;;3.97;89.49;101198.53;5091170;28;20375;-42
2023/01/02 00:05:54;;;;;;;;;;;;;;;4.06;89.92;101199.59;5091067;28;19942;-42
2023/01/02 00:08:19;;;;;;;;;;;;;;;3.81;90.49;101198.94;5091085;28;19997;-43
2023/01/02 00:10:44;;;;;;;;;;;;;;;3.82;90.85;101202.41;5091216;28;20314;-42
2023/01/02 00:13:10;;;;;;;;;;;;;;;3.85;91.17;101200.38;5091734;28;19920;-43
2023/01/02 00:15:35;;;;;;;;;;;;;;;3.89;90.71;101207.06;5089713;28;19938;-43
2023/01/02 00:18:01;;;;;;;;;;;;;;;3.88;91.02;101210.66;5090981;28;20013;-43
2023/01/02 00:20:26;;;;;;;;;;;;;;;4.06;90.20;101208.31;5090550;28;20101;-43
2023/01/02 00:22:51;;;;;;;;;;;;;;;4.27;88.90;101213.63;5088126;28;19942;-43
2023/01/02 00:25:17;;;;;;;;;;;;;;;4.22;88.48;101213.16;5090831;28;20217;-43
2023/01/02 00:27:42;;;;;;;;;;;;;;;4.26;90.18;101216.38;5090770;28;19920;-43
2023/01/02 00:30:07;;;;;;;;;;;;;;;4.24;90.59;101220.94;5090638;28;19912;-42
2023/01/02 00:32:33;;;;;;;;;;;;;;;4.28;89.80;101220.59;5090563;28;19955;-42
2023/01/02 00:34:58;;;;;;;;;;;;;;;4.26;89.28;101216.38;5090893;28;19918;-43
2023/01/02 00:37:23;;;;;;;;;;;;;;;4.33;89.49;101224.63;5090574;28;20064;-42
2023/01/02 00:39:49;;;;;;;;;;;;;;;4.38;88.97;101215.38;5090662;28;19923;-42
2023/01/02 00:42:14;;;;;;;;;;;;;;;4.50;88.43;101219.63;5090617;28;19912;-42
2023/01/02 00:44:39;;;;;;;;;;;;;;;4.46;88.39;101223.47;5090068;28;20421;-42
2023/01/02 00:47:04;;;;;;;;;;;;;;;4.48;88.36;101223.38;5090556;28;19955;-43
2023/01/02 00:49:30;;;;;;;;;;;;;;;4.68;87.90;101224.31;5090535;28;19969;-43
2023/01/02 00:51:55;;;;;;;;;;;;;;;4.56;87.01;101218.28;5090540;28;20367;-42
2023/01/02 00:54:20;;;;;;;;;;;;;;;4.39;87.96;101218.84;5090564;28;19940;-42
2023/01/02 00:56:46;;;;;;;;;;;;;;;4.44;88.07;101219.31;5090522;28;21223;-42
2023/01/02 00:59:11;;;;;;;;;;;;;;;4.35;88.09;101215.63;5090684;28;20337;-42
2023/01/02 01:01:36;;;;;;;;;;;;;;;4.32;87.67;101213.22;5090695;28;20367;-42
2023/01/02 01:04:01;;;;;;;;;;;;;;;4.43;87.39;101210.53;5090644;28;19916;-42
2023/01/02 01:06:27;;;;;;;;;;;;;;;4.31;87.00;101209.78;5090782;28;20468;-43
2023/01/02 01:08:52;;;;;;;;;;;;;;;4.18;87.76;101210.91;5090403;28;20563;-42
2023/01/02 01:11:17;;;;;;;;;;;;;;;4.10;88.08;101211.53;5090909;28;19916;-42
2023/01/02 01:13:43;;;;;;;;;;;;;;;3.99;88.66;101206.31;5091107;28;19920;-42
2023/01/02 01:16:10;;;;;;;;;;;;;;;4.01;88.78;101205.22;5090971;28;19912;-42
2023/01/02 01:18:36;;;;;;;;;;;;;;;3.94;88.96;101203.22;5090705;28;20056;-41
2023/01/02 01:21:05;;;;;;;;;;;;;;;4.26;88.21;101195.31;5090799;28;19912;-42
2023/01/02 01:23:30;;;;;;;;;;;;;;;4.17;87.00;101204.81;5090587;28;20301;-43
2023/01/02 01:25:55;;;;;;;;;;;;;;;3.81;88.45;101204.22;5091032;28;19920;-42
2023/01/02 01:28:21;;;;;;;;;;;;;;;3.95;88.91;101202.25;5090880;28;19942;-42
2023/01/02 01:30:46;;;;;;;;;;;;;;;4.07;88.30;101199.47;5090989;28;20035;-42
2023/01/02 01:33:11;;;;;;;;;;;;;;;3.84;88.72;101193.41;5090534;28;19939;-42
2023/01/02 01:35:36;;;;;;;;;;;;;;;3.95;88.91;101186.47;5091028;28;20011;-42
2023/01/02 01:38:02;;;;;;;;;;;;;;;3.99;87.79;101175.53;5090516;28;19920;-42
2023/01/02 01:40:27;;;;;;;;;;;;;;;3.82;89.50;101179.53;5091069;28;19998;-42
2023/01/02 01:42:52;;;;;;;;;;;;;;;3.74;89.26;101178.50;5090965;28;19912;-43
2023/01/02 01:45:18;;;;;;;;;;;;;;;3.60;89.58;101169.91;5089880;28;19971;-42
2023/01/02 01:47:48;;;;;;;;;;;;;;;3.56;90.46;101167.63;5090897;28;19912;-42
2023/01/02 01:50:13;;;;;;;;;;;;;;;3.60;90.58;101169.06;5091152;28;20003;-43
2023/01/02 01:52:58;;;;;;;;;;;;;;;3.74;89.96;101158.25;5090611;28;19995;-43
2023/01/02 01:55:26;;;;;;;;;;;;;;;3.77;89.30;101160.66;5093194;28;20007;-43
2023/01/02 01:57:56;;;;;;;;;;;;;;;3.70;88.77;101151.56;5094553;28;19974;-43
2023/01/02 02:00:21;;;;;;;;;;;;;;;3.75;89.10;101154.69;5094275;28;19913;-43
2023/01/02 02:02:49;;;;;;;;;;;;;;;3.73;89.10;101156.56;5094791;28;19912;-41
2023/01/02 02:05:18;;;;;;;;;;;;;;;3.64;89.00;101150.28;5094956;28;19916;-42
2023/01/02 02:07:47;;;;;;;;;;;;;;;3.84;88.66;101155.72;5094657;28;19920;-43
2023/01/02 02:10:13;;;;;;;;;;;;;;;3.74;88.58;101153.00;5094476;28;20034;-42
2023/01/02 02:12:38;;;;;;;;;;;;;;;3.97;87.72;101158.19;5094218;28;19952;-43
2023/01/02 02:15:05;;;;;;;;;;;;;;;3.90;88.59;101158.69;5094398;28;19969;-43
2023/01/02 02:17:33;;;;;;;;;;;;;;;4.02;88.44;101150.75;5093897;28;20006;-44
2023/01/02 02:19:59;;;;;;;;;;;;;;;3.92;88.39;101151.50;5094223;28;20011;-43
2023/01/02 02:22:33;;;;;;;;;;;;;;;3.80;89.39;101155.13;5093874;28;20007;-43
2023/01/02 02:25:08;;;;;;;;;;;;;;;3.93;89.52;101149.69;5093851;28;19912;-43
2023/01/02 02:27:46;;;;;;;;;;;;;;;4.15;88.52;101155.81;5094709;28;19912;-44
2023/01/02 02:30:27;;;;;;;;;;;;;;;4.33;87.72;101156.94;5094462;28;20006;-43
2023/01/02 02:32:52;;;;;;;;;;;;;;;4.49;86.20;101159.97;5094114;28;19916;-43
2023/01/02 02:35:30;;;;;;;;;;;;;;;4.40;87.11;101155.47;5094686;28;19935;-43
2023/01/02 02:38:03;;;;;;;;;;;;;;;4.30;86.44;101152.78;5094354;28;19916;-43
2023/01/02 02:40:31;;;;;;;;;;;;;;;4.27;87.74;101155.66;5094369;28;19961;-43
2023/01/02 02:43:07;;;;;;;;;;;;;;;4.21;87.92;101152.69;5094355;28;20331;-43
2023/01/02 02:45:51;;;;;;;;;;;;;;;4.22;87.41;101141.19;5094486;28;19912;-43
2023/01/02 02:48:36;;;;;;;;;;;;;;;4.07;88.17;101138.00;5094511;28;19913;-42
2023/01/02 02:51:05;;;;;;;;;;;;;;;4.01;88.08;101141.16;5090086;28;19955;-43
2023/01/02 02:53:57;;;;;;;;;;;;;;;3.85;87.97;101144.22;5094500;28;19969;-42
2023/01/02 02:56:23;;;;;;;;;;;;;;;3.77;89.00;101131.69;5093132;28;20010;-43
2023/01/02 02:58:49;;;;;;;;;;;;;;;3.66;89.06;101127.28;5094193;28;20412;-44
2023/01/02 03:01:16;;;;;;;;;;;;;;;3.81;88.64;101127.00;5093850;28;20019;-44
2023/01/02 03:03:41;;;;;;;;;;;;;;;3.71;88.37;101129.53;5094127;28;19923;-42
2023/01/02 03:06:11;;;;;;;;;;;;;;;3.60;88.48;101130.44;5093419;28;19912;-43
2023/01/02 03:08:42;;;;;;;;;;;;;;;3.53;88.75;101132.72;5094115;28;19912;-43
2023/01/02 03:11:09;;;;;;;;;;;;;;;3.60;88.35;101140.09;5093815;28;19919;-42
2023/01/02 03:13:52;;;;;;;;;;;;;;;3.49;89.31;101125.19;5094124;28;19912;-43
2023/01/02 03:16:18;;;;;;;;;;;;;;;3.42;89.50;101126.63;5093660;28;20029;-41
2023/01/02 03:18:49;;;;;;;;;;;;;;;3.35;89.21;101128.09;5093705;28;19920;-43
2023/01/02 03:21:26;;;;;;;;;;;;;;;3.22;90.05;101123.81;5093586;28;20332;-43
2023/01/02 03:23:52;;;;;;;;;;;;;;;3.27;89.39;101128.69;5093809;28;20019;-43
2023/01/02 03:26:21;;;;;;;;;;;;;;;3.21;90.22;101124.75;5093844;28;19928;-43
2023/01/02 03:28:49;;;;;;;;;;;;;;;3.17;90.33;101127.75;5093820;28;20267;-43
2023/01/02 03:31:17;;;;;;;;;;;;;;;3.28;89.99;101127.75;5093549;28;20080;-43
2023/01/02 03:33:45;;;;;;;;;;;;;;;3.15;90.52;101130.50;5093494;28;19916;-41
2023/01/02 03:36:15;;;;;;;;;;;;;;;3.28;90.50;101127.75;5093192;28;19912;-42
2023/01/02 03:38:43;;;;;;;;;;;;;;;3.44;88.61;101128.19;5093619;28;19939;-43
2023/01/02 03:41:11;;;;;;;;;;;;;;;3.55;88.57;101132.59;5093449;28;20021;-42
2023/01/02 03:43:37;;;;;;;;;;;;;;;3.28;88.81;101122.50;5093129;28;19962;-43
2023/01/02 03:46:27;;;;;;;;;;;;;;;3.22;88.89;101121.19;5093244;28;20457;-43
2023/01/02 03:49:03;;;;;;;;;;;;;;;3.30;89.91;101133.72;5093270;28;19916;-43
2023/01/02 03:51:28;;;;;;;;;;;;;;;3.10;89.37;101124.78;5093301;28;20431;-42
2023/01/02 03:53:54;;;;;;;;;;;;;;;3.11;90.27;101135.19;5093636;28;20029;-43
2023/01/02 03:56:26;;;;;;;;;;;;;;;3.19;89.67;101134.56;5093241;28;20010;-43
2023/01/02 03:59:14;;;;;;;;;;;;;;;3.26;89.74;101141.03;5093870;28;19916;-44
2023/01/02 04:01:42;;;;;;;;;;;;;;;3.23;89.21;101143.06;5089506;28;20022;-41
2023/01/02 04:04:17;;;;;;;;;;;;;;;3.36;88.83;101151.66;5092857;28;19919;-42
2023/01/02 04:06:46;;;;;;;;;;;;;;;3.50;88.57;101148.75;5092656;28;20420;-41
2023/01/02 04:09:21;;;;;;;;;;;;;;;3.39;87.65;101156.69;5092903;28;19927;-42
2023/01/02 04:11:49;;;;;;;;;;;;;;;3.14;88.65;101152.50;5092775;28;19912;-42
2023/01/02 04:14:21;;;;;;;;;;;;;;;2.99;88.76;101153.69;5092089;28;20002;-42
2023/01/02 04:16:48;;;;;;;;;;;;;;;3.24;89.79;101157.91;5092403;28;19920;-42
2023/01/02 04:19:21;;;;;;;;;;;;;;;3.22;88.89;101149.25;5091345;28;19970;-42
2023/01/02 04:21:48;;;;;;;;;;;;;;;3.13;88.84;101149.03;5092552;28;19926;-42
2023/01/02 04:24:18;;;;;;;;;;;;;;;3.13;89.32;101151.66;5092192;28;19922;-42
2023/01/02 04:26:49;;;;;;;;;;;;;;;3.03;89.61;101155.16;5092111;28;19947;-42
2023/01/02 04:29:14;;;;;;;;;;;;;;;3.02;90.13;101158.75;5092552;28;20019;-41
2023/01/02 04:31:45;;;;;;;;;;;;;;;3.17;90.96;101154.91;5091875;28;20403;-42
2023/01/02 04:34:13;;;;;;;;;;;;;;;3.30;89.43;101144.25;5092162;28;19912;-42
2023/01/02 04:36:39;;;;;;;;;;;;;;;3.19;89.87;101133.75;5092306;28;19920;-42
2023/01/02 04:39:04;;;;;;;;;;;;;;;3.12;89.14;101142.13;5092057;28;19920;-42
2023/01/02 04:41:30;;;;;;;;;;;;;;;3.19;88.83;101131.94;5091226;28;19912;-42
2023/01/02 04:43:56;;;;;;;;;;;;;;;3.10;89.05;101140.56;5092046;28;19912;-42
2023/01/02 04:46:22;;;;;;;;;;;;;;;3.00;90.03;101136.97;5091681;28;19920;-43
2023/01/02 04:48:47;;;;;;;;;;;;;;;3.19;90.11;101134.56;5092006;28;19912;-42
2023/01/02 04:51:12;;;;;;;;;;;;;;;3.13;89.59;101138.53;5091783;28;19939;-43
2023/01/02 04:53:38;;;;;;;;;;;;;;;3.10;90.15;101135.28;5091742;28;20334;-43
2023/01/02 04:56:03;;;;;;;;;;;;;;;3.23;89.74;101138.63;5091280;28;19912;-43
2023/01/02 04:58:28;;;;;;;;;;;;;;;3.21;88.83;101145.81;5091742;28;19922;-43
2023/01/02 05:00:54;;;;;;;;;;;;;;;3.12;89.11;101141.25;5092082;28;19995;-43
2023/01/02 05:03:19;;;;;;;;;;;;;;;3.11;87.82;101144.88;5091668;28;20356;-43
2023/01/02 05:05:44;;;;;;;;;;;;;;;2.89;88.86;101143.94;5091856;28;19961;-43
2023/01/02 05:08:10;;;;;;;;;;;;;;;3.12;88.56;101143.91;5091570;28;20375;-43
2023/01/02 05:10:35;;;;;;;;;;;;;;;2.85;88.63;101137.22;5091481;28;19916;-43
2023/01/02 05:13:00;;;;;;;;;;;;;;;2.82;89.48;101132.22;5091553;28;19912;-43
2023/01/02 05:15:25;;;;;;;;;;;;;;;2.71;89.48;101135.66;5091493;28;19915;-42
2023/01/02 05:17:51;;;;;;;;;;;;;;;2.70;89.69;101135.78;5091273;28;19926;-43
2023/01/02 05:20:16;;;;;;;;;;;;;;;2.83;89.21;101130.41;5091543;28;19920;-42
2023/01/02 05:25:26;;;;;;;;;;;;;;;2.87;89.23;101137.94;5091717;28;19919;-43
2023/01/02 05:27:52;;;;;;;;;;;;;;;2.76;89.26;101137.09;5089696;28;19913;-41
2023/01/02 05:30:18;;;;;;;;;;;;;;;2.65;89.67;101132.69;5091120;28;19916;-42
2023/01/02 05:32:43;;;;;;;;;;;;;;;2.54;89.02;101133.50;5091355;28;19912;-42
2023/01/02 05:35:08;;;;;;;;;;;;;;;2.57;89.83;101135.91;5091382;28;20543;-42
2023/01/02 05:37:34;;;;;;;;;;;;;;;2.58;89.46;101132.28;5091413;28;19963;-43
2023/01/02 05:39:59;;;;;;;;;;;;;;;2.52;89.72;101140.66;5091584;28;19912;-43
2023/01/02 05:42:24;;;;;;;;;;;;;;;2.54;89.62;101144.00;5091020;28;19919;-43
2023/01/02 05:44:50;;;;;;;;;;;;;;;2.37;91.07;101147.91;5091087;28;19912;-43
2023/01/02 05:47:15;;;;;;;;;;;;;;;2.58;91.12;101152.50;5091339;28;20318;-43
2023/01/02 05:49:40;;;;;;;;;;;;;;;2.43;91.00;101151.88;5090490;28;19912;-43
2023/01/02 05:52:06;;;;;;;;;;;;;;;2.43;90.10;101143.97;5090669;28;19912;-43
2023/01/02 05:54:31;;;;;;;;;;;;;;;2.52;90.94;101140.66;5090606;28;19912;-43
2023/01/02 05:56:56;;;;;;;;;;;;;;;2.73;89.33;101146.88;5090438;28;19912;-43
2023/01/02 05:59:21;;;;;;;;;;;;;;;2.68;88.50;101146.41;5090526;28;20002;-42
2023/01/02 06:01:47;;;;;;;;;;;;;;;2.69;88.73;101142.81;5090397;28;19912;-42
2023/01/02 06:04:12;;;;;;;;;;;;;;;2.73;89.30;101144.25;5090549;28;19916;-43
2023/01/02 06:06:38;;;;;;;;;;;;;;;2.75;89.23;101138.88;5089049;28;19927;-43
2023/01/02 06:09:04;;;;;;;;;;;;;;;2.85;88.47;101146.91;5089567;28;19912;-42
2023/01/02 06:11:30;;;;;;;;;;;;;;;3.08;88.26;101148.56;5089556;28;19919;-42
2023/01/02 06:13:56;;;;;;;;;;;;;;;3.00;89.85;101143.06;5089915;28;19920;-42
2023/01/02 06:16:22;;;;;;;;;;;;;;;3.27;89.08;101158.47;5089783;28;19913;-42
2023/01/02 06:18:47;;;;;;;;;;;;;;;3.36;89.09;101156.09;5089927;28;19920;-43
2023/01/02 06:21:13;;;;;;;;;;;;;;;3.59;87.50;101159.50;5090229;28;19916;-42
2023/01/02 06:23:39;;;;;;;;;;;;;;;4.34;94.87;101169.16;5093967;28;19912;-41
2023/01/02 06:26:06;;;;;;;;;;;;;;;4.29;84.65;101163.44;5092411;28;20000;-42
2023/01/02 06:28:32;;;;;;;;;;;;;;;4.46;87.54;101172.56;5093361;28;19912;-42
2023/01/02 06:31:01;;;;;;;;;;;;;;;4.82;84.12;101171.25;5089172;28;19928;-43
2023/01/02 06:33:26;;;;;;;;;;;;;;;5.13;82.99;101171.25;5083718;28;19912;-42
2023/01/02 06:35:59;;;;;;;;;;;;;;;5.24;80.93;101176.44;5090133;28;20026;-43
2023/01/02 06:38:24;;;;;;;;;;;;;;;5.57;79.33;101169.13;5090013;28;20425;-42
2023/01/02 06:40:56;;;;;;;;;;;;;;;5.48;79.33;101169.94;5090076;28;19943;-42
2023/01/02 06:43:22;;;;;;;;;;;;;;;5.51;80.43;101174.97;5093553;28;19919;-43
2023/01/02 06:45:47;;;;;;;;;;;;;;;5.45;80.86;101176.34;5081705;28;19917;-43
2023/01/02 06:48:13;;;;;;;;;;;;;;;5.54;80.11;101180.00;5082575;28;20449;-42
2023/01/02 06:50:38;;;;;;;;;;;;;;;5.71;80.01;101188.22;5093484;28;20275;-43
2023/01/02 06:53:03;;;;;;;;;;;;;;;5.73;80.57;101186.25;5093465;28;19955;-42
2023/01/02 06:55:28;;;;;;;;;;;;;;;6.15;81.09;101192.19;5093493;28;20057;-42
2023/01/02 06:57:54;;;;;;;;;;;;;;;6.33;78.52;101199.41;5093687;28;19916;-44
2023/01/02 07:00:19;;;;;;;;;;;;;;;6.90;76.00;101202.94;5092682;28;19912;-44
2023/01/02 07:02:45;;;;;;;;;;;;;;;6.67;77.27;101209.53;5092243;28;19973;-42
2023/01/02 07:05:11;;;;;;;;;;;;;;;7.00;81.43;101211.66;5092538;28;19916;-43
2023/01/02 07:07:36;;;;;;;;;;;;;;;7.54;77.36;101211.03;5098131;28;20347;-43
2023/01/02 07:10:02;;;;;;;;;;;;;;;7.71;75.19;101218.19;5102723;28;20402;-43
2023/01/02 07:12:27;;;;;;;;;;;;;;;8.06;73.89;101221.88;5092293;28;19938;-43
2023/01/02 07:14:52;;;;;;;;;;;;;;;8.77;74.41;101210.34;5091912;28;19938;-43
2023/01/02 07:17:18;;;;;;;;;;;;;;;9.58;71.30;101219.75;5091824;28;19974;-43
2023/01/02 07:19:43;;;;;;;;;;;;;;;9.98;67.50;101222.69;5091570;28;19920;-43
2023/01/02 07:22:08;;;;;;;;;;;;;;;11.60;67.41;101223.66;5102938;28;19915;-43
2023/01/02 07:24:34;;;;;;;;;;;;;;;11.22;60.94;101213.63;5098128;27;19955;-42
2023/01/02 07:26:59;;;;;;;;;;;;;;;11.17;58.49;101202.63;5092550;28;19969;-43
2023/01/02 07:29:24;;;;;;;;;;;;;;;10.47;60.79;101212.09;5092376;28;20292;-43
2023/01/02 07:31:49;;;;;;;;;;;;;;;10.57;63.78;101219.91;5092725;28;20038;-42
2023/01/02 07:34:15;;;;;;;;;;;;;;;11.76;63.75;101212.06;5092653;28;20439;-44
2023/01/02 07:36:40;;;;;;;;;;;;;;;12.37;55.94;101218.31;5092920;28;19912;-43
2023/01/02 07:39:05;;;;;;;;;;;;;;;11.51;59.87;101206.84;5092502;28;19965;-44
2023/01/02 07:41:30;;;;;;;;;;;;;;;11.52;59.24;101203.19;5092506;28;19911;-44
2023/01/02 07:43:56;;;;;;;;;;;;;;;11.39;58.32;101205.59;5091577;28;19912;-44
2023/01/02 07:46:21;;;;;;;;;;;;;;;11.50;57.73;101199.88;5092591;28;19912;-43
2023/01/02 07:48:46;;;;;;;;;;;;;;;11.24;58.90;101195.63;5092287;28;20011;-42
2023/01/02 07:51:12;;;;;;;;;;;;;;;12.30;57.00;101202.22;5092527;28;19916;-42
2023/01/02 07:53:37;;;;;;;;;;;;;;;12.99;53.62;101197.72;5092126;28;19912;-43
2023/01/02 07:56:03;;;;;;;;;;;;;;;12.15;55.83;101197.81;5092223;28;19916;-43
2023/01/02 07:58:28;;;;;;;;;;;;;;;11.77;56.37;101192.41;5092013;28;19916;-43
2023/01/02 08:00:54;;;;;;;;;;;;;;;11.38;56.56;101193.25;5091778;28;20390;-43
2023/01/02 08:03:20;;;;;;;;;;;;;;;11.61;57.02;101193.28;5093726;28;19912;-43
2023/01/02 08:05:45;;;;;;;;;;;;;;;11.96;56.33;101194.63;5091540;28;20328;-42
2023/01/02 08:08:10;;;;;;;;;;;;;;;11.81;55.36;101186.50;5092093;28;19912;-44
2023/01/02 08:10:36;;;;;;;;;;;;;;;11.95;55.52;101194.78;5091355;28;20287;-42
2023/01/02 08:13:02;;;;;;;;;;;;;;;11.61;56.26;101187.97;5092008;28;20296;-41
2023/01/02 08:15:28;;;;;;;;;;;;;;;11.37;57.99;101189.75;5091726;28;19912;-42
2023/01/02 08:17:54;;;;;;;;;;;;;;;11.83;56.19;101189.00;5091462;28;19924;-42
2023/01/02 08:20:20;;;;;;;;;;;;;;;11.49;56.61;101192.88;5091576;28;19923;-43
2023/01/02 08:22:45;;;;;;;;;;;;;;;12.01;55.37;101191.41;5091690;28;19912;-42
2023/01/02 08:25:10;;;;;;;;;;;;;;;12.47;55.21;101178.88;5091772;28;19918;-42
2023/01/02 08:27:36;;;;;;;;;;;;;;;12.78;53.90;101174.41;5091295;28;20356;-42
2023/01/02 08:30:01;;;;;;;;;;;;;;;12.80;52.77;101175.06;5091497;28;20003;-42
2023/01/02 08:32:26;;;;;;;;;;;;;;;12.98;52.74;101180.84;5091422;28;19950;-42
2023/01/02 08:34:51;;;;;;;;;;;;;;;12.94;53.17;101173.41;5091680;28;20268;-44
2023/01/02 08:37:17;;;;;;;;;;;;;;;13.00;54.71;101167.31;5091511;28;19913;-43
2023/01/02 08:39:42;;;;;;;;;;;;;;;12.64;56.09;101165.34;5091307;28;19995;-42
2023/01/02 08:42:07;;;;;;;;;;;;;;;12.79;54.35;101160.84;5090980;28;20633;-43
2023/01/02 08:44:33;;;;;;;;;;;;;;;13.07;53.77;101165.56;5091264;28;19964;-42
2023/01/02 08:46:58;;;;;;;;;;;;;;;12.93;55.22;101155.69;5091544;28;20437;-42
2023/01/02 08:49:24;;;;;;;;;;;;;;;12.88;53.69;101159.75;5090610;28;20387;-42
2023/01/02 08:51:49;;;;;;;;;;;;;;;13.11;53.15;101153.47;5091187;28;19919;-43
2023/01/02 08:54:14;;;;;;;;;;;;;;;13.21;52.57;101145.16;5091096;28;20389;-42
2023/01/02 08:56:40;;;;;;;;;;;;;;;12.48;54.29;101124.44;5091156;28;19919;-42
2023/01/02 08:59:10;;;;;;;;;;;;;;;13.18;52.79;101135.69;5090793;28;20344;-43
2023/01/02 09:01:36;;;;;;;;;;;;;;;12.63;53.68;101134.34;5096793;28;19912;-42
2023/01/02 09:04:01;;;;;;;;;;;;;;;12.77;53.10;101135.34;5110825;28;20383;-41
2023/01/02 09:06:28;;;;;;;;;;;;;;;12.94;52.58;101130.66;5111336;28;19911;-44
2023/01/02 09:08:55;;;;;;;;;;;;;;;12.94;52.14;101128.78;5106174;28;19999;-42
2023/01/02 09:11:24;;;;;;;;;;;;;;;12.38;53.39;101137.25;5090898;28;20002;-43
2023/01/02 09:13:50;;;;;;;;;;;;;;;12.09;54.65;101130.00;5090899;28;19970;-42
2023/01/02 09:16:15;;;;;;;;;;;;;;;12.33;54.38;101124.41;5090850;28;19912;-43
2023/01/02 09:18:41;;;;;;;;;;;;;;;12.94;53.18;101117.28;5090523;28;20113;-42
2023/01/02 09:21:06;;;;;;;;;;;;;;;13.05;52.18;101112.28;5090141;28;19953;-44
2023/01/02 09:23:32;;;;;;;;;;;;;;;12.96;53.34;101110.72;5090369;28;19912;-41
2023/01/02 09:25:58;;;;;;;;;;;;;;;12.39;54.22;101109.53;5090626;28;19926;-42
2023/01/02 09:28:23;;;;;;;;;;;;;;;12.01;54.99;101116.72;5090516;28;19923;-42
2023/01/02 09:30:49;;;;;;;;;;;;;;;12.45;55.11;101107.97;5090034;28;19912;-42
2023/01/02 09:33:14;;;;;;;;;;;;;;;12.50;54.20;101108.25;5090379;28;19916;-43
2023/01/02 09:35:39;;;;;;;;;;;;;;;12.31;54.76;101096.25;5090485;28;19912;-43
2023/01/02 09:38:04;;;;;;;;;;;;;;;12.94;53.70;101099.41;5090341;28;20030;-43
2023/01/02 09:40:30;;;;;;;;;;;;;;;12.87;53.61;101087.78;5090219;28;19923;-42
2023/01/02 09:42:56;;;;;;;;;;;;;;;13.24;52.68;101081.47;5080238;28;19924;-42
2023/01/02 09:45:22;;;;;;;;;;;;;;;13.35;51.81;101055.31;5075488;28;19915;-43
2023/01/02 09:47:48;;;;;;;;;;;;;;;13.40;51.58;101084.97;5075910;28;20287;-43
2023/01/02 09:50:17;;;;;;;;;;;;;;;13.14;52.59;101077.47;5070162;28;19917;-43
2023/01/02 09:52:44;;;;;;;;;;;;;;;13.24;52.45;101070.78;5078724;28;19916;-42
2023/01/02 09:55:14;;;;;;;;;;;;;;;12.19;54.77;101077.19;5074604;28;19919;-43
2023/01/02 09:57:54;;;;;;;;;;;;;;;12.42;55.09;101070.97;5069939;28;20449;-43
2023/01/02 10:00:21;;;;;;;;;;;;;;;13.03;53.26;101060.06;5070031;28;19912;-37
2023/01/02 10:02:51;;;;;;;;;;;;;;;12.83;53.79;101060.66;5086077;28;20337;-37
2023/01/02 10:05:19;;;;;;;;;;;;;;;13.18;53.29;101052.00;5084978;28;20328;-37
2023/01/02 10:08:03;;;;;;;;;;;;;;;13.65;52.00;101047.97;5094399;28;19943;-37
2023/01/02 10:10:42;;;;;;;;;;;;;;;13.82;51.97;101045.84;5093953;28;19974;-37
2023/01/02 10:13:16;;;;;;;;;;;;;;;14.27;50.81;101047.22;5088962;28;20020;-36
2023/01/02 10:15:44;;;;;;;;;;;;;;;13.48;51.64;101042.06;5089738;28;19973;-36
2023/01/02 10:18:16;;;;;;;;;;;;;;;13.71;51.44;101038.34;5090251;28;19998;-37
2023/01/02 10:20:44;;;;;;;;;;;;;;;13.68;50.95;101037.72;5093498;28;19920;-37
2023/01/02 10:23:12;;;;;;;;;;;;;;;13.55;51.24;101031.44;5096478;28;20319;-37
2023/01/02 10:25:40;;;;;;;;;;;;;;;13.86;51.38;101036.44;5095463;28;20395;-37
2023/01/02 10:28:05;;;;;;;;;;;;;;;13.36;52.67;101033.72;5092285;28;19974;-37
2023/01/02 10:30:34;;;;;;;;;;;;;;;13.29;53.73;101025.59;5089483;28;19916;-37
2023/01/02 10:33:23;;;;;;;;;;;;;;;13.97;52.58;101027.03;5089798;28;19916;-37
2023/01/02 10:35:52;;;;;;;;;;;;;;;13.78;52.28;101023.19;5080773;28;19916;-37
2023/01/02 10:38:18;;;;;;;;;;;;;;;13.88;52.45;101016.50;5087769;28;19959;-37
2023/01/02 10:40:45;;;;;;;;;;;;;;;14.15;52.09;101018.53;5093612;28;19918;-36
2023/01/02 10:43:11;;;;;;;;;;;;;;;14.37;50.26;101012.06;5093517;28;19912;-37
2023/01/02 10:45:36;;;;;;;;;;;;;;;14.54;50.76;101011.75;5093360;28;19919;-37
2023/01/02 10:48:02;;;;;;;;;;;;;;;14.31;50.82;101010.19;5093763;28;19931;-36
2023/01/02 10:50:29;;;;;;;;;;;;;;;13.96;52.32;101012.03;5093263;28;20402;-36
2023/01/02 10:53:05;;;;;;;;;;;;;;;14.12;51.74;101005.53;5093402;28;19918;-36
2023/01/02 10:55:37;;;;;;;;;;;;;;;14.61;51.21;100996.56;5093001;28;20016;-36
2023/01/02 10:58:04;;;;;;;;;;;;;;;14.54;50.96;100993.00;5093221;28;20006;-37
2023/01/02 11:00:31;;;;;;;;;;;;;;;14.15;52.53;100986.41;5092656;28;19922;-36
2023/01/02 11:03:04;;;;;;;;;;;;;;;14.70;51.53;100995.38;5110895;28;19912;-43
2023/01/02 11:05:30;;;;;;;;;;;;;;;14.94;50.21;100990.50;5113417;28;19939;-43
2023/01/02 11:07:55;;;;;;;;;;;;;;;15.28;49.41;100984.19;5113348;28;19955;-43
2023/01/02 11:10:23;;;;;;;;;;;;;;;15.13;49.42;100981.66;5112996;28;19912;-44
2023/01/02 11:12:49;;;;;;;;;;;;;;;14.71;51.82;100975.56;5113048;28;20413;-41
2023/01/02 11:15:21;;;;;;;;;;;;;;;14.96;50.02;100970.50;5108452;28;19912;-42
2023/01/02 11:17:46;;;;;;;;;;;;;;;14.67;51.08;100966.28;5092114;28;20403;-41
2023/01/02 11:20:19;;;;;;;;;;;;;;;14.67;51.26;100971.66;5083736;28;20007;-43
2023/01/02 11:22:44;;;;;;;;;;;;;;;14.79;50.46;100975.41;5072435;28;19913;-42
2023/01/02 11:25:39;;;;;;;;;;;;;;;14.53;50.77;100961.91;5076807;28;19917;-43
2023/01/02 11:28:05;;;;;;;;;;;;;;;15.04;51.09;100966.78;5070208;28;20329;-43
2023/01/02 11:30:33;;;;;;;;;;;;;;;15.17;49.81;100957.97;5079299;28;19912;-42
2023/01/02 11:33:04;;;;;;;;;;;;;;;14.87;50.63;100952.97;5091599;28;19919;-44
2023/01/02 11:35:36;;;;;;;;;;;;;;;15.10;49.61;100944.56;5091401;28;19912;-44
2023/01/02 11:38:02;;;;;;;;;;;;;;;14.96;49.91;100937.50;5091364;28;19913;-43
2023/01/02 11:40:29;;;;;;;;;;;;;;;15.09;50.58;100931.34;5089729;28;19917;-42
2023/01/02 11:45:40;;;;;;;;;;;;;;;15.41;48.81;100924.38;5090228;28;19943;-43
2023/01/02 11:48:11;;;;;;;;;;;;;;;15.05;50.10;100926.38;5090581;28;19912;-43
2023/01/02 11:50:46;;;;;;;;;;;;;;;15.14;50.54;100916.31;5089853;28;20006;-42
2023/01/02 11:53:11;;;;;;;;;;;;;;;15.59;49.09;100911.16;5082755;28;19943;-43
2023/01/02 11:55:36;;;;;;;;;;;;;;;15.24;49.91;100910.53;5090208;28;19912;-43
2023/01/02 11:58:01;;;;;;;;;;;;;;;15.10;50.63;100904.34;5089779;28;20520;-44
2023/01/02 12:00:30;;;;;;;;;;;;;;;14.90;50.28;100907.00;5089289;28;19916;-44
2023/01/02 12:02:59;;;;;;;;;;;;;;;14.99;50.97;100911.13;5090675;28;19948;-44
2023/01/02 12:05:36;;;;;;;;;;;;;;;15.08;49.87;100901.06;5091264;28;19922;-43
2023/01/02 12:08:05;;;;;;;;;;;;;;;15.06;50.46;100895.06;5090753;28;19960;-42
2023/01/02 12:10:30;;;;;;;;;;;;;;;14.91;50.79;100900.63;5091410;28;19920;-42
2023/01/02 12:13:15;;;;;;;;;;;;;;;14.73;50.99;100903.84;5092268;28;20291;-42
2023/01/02 12:15:43;;;;;;;;;;;;;;;14.84;51.73;100891.72;5091938;28;19912;-43
2023/01/02 12:18:26;;;;;;;;;;;;;;;15.20;50.36;100887.84;5106146;28;20379;-42
2023/01/02 12:21:15;;;;;;;;;;;;;;;14.78;50.86;100898.72;5112228;28;19922;-37
2023/01/02 12:23:40;;;;;;;;;;;;;;;15.07;50.62;100891.34;5096574;28;19981;-37
2023/01/02 12:26:34;;;;;;;;;;;;;;;15.18;50.17;100885.38;5091636;28;19912;-36
2023/01/02 12:29:12;;;;;;;;;;;;;;;14.74;51.39;100884.09;5050080;28;19986;-37
2023/01/02 12:31:43;;;;;;;;;;;;;;;14.99;50.97;100880.84;5090263;28;19916;-38
2023/01/02 12:34:14;;;;;;;;;;;;;;;15.33;50.16;100874.44;5092081;28;19915;-36
2023/01/02 12:36:39;;;;;;;;;;;;;;;15.25;49.66;100872.78;5091931;28;20002;-37
2023/01/02 12:39:23;;;;;;;;;;;;;;;15.22;50.52;100869.69;5090923;28;20003;-36
2023/01/02 12:42:16;;;;;;;;;;;;;;;15.25;50.70;100870.13;5091976;28;19977;-38
2023/01/02 12:44:47;;;;;;;;;;;;;;;15.67;49.13;100860.97;5091938;28;19991;-38
2023/01/02 12:47:27;;;;;;;;;;;;;;;15.75;49.23;100860.78;5091049;28;19923;-36
2023/01/02 12:50:05;;;;;;;;;;;;;;;14.97;50.36;100856.09;5091005;28;19950;-39
2023/01/02 12:52:42;;;;;;;;;;;;;;;15.51;49.90;100854.19;5090941;28;19924;-37